Mr Farrel — WDF2273 — position and weather

sailwx.info

Track history (hours):
 
Tides and Currents Weather Stations Pressure Air Temp Water Temp Dewpoint Dewpoint Depression Visibility Wind Speed Wind Dir Waves Ship Positions

Mr Farrel

Owner: Crosby Marine Transportation LLC, Golden Meadow, LA. More information available from US FCC via Universal Licensing System and Coast Guard Vessel Documentation Center.

Last reported at 2018-Feb-21 14:34 UTC. Time now 2018-Feb-23 16:17 UTC.
Position N 29°42' W 094°60'.

; draft 3 m.

Type: Tug. MMSI: 367426830.

Date/timePositionNaut miles runAvg speedWind from/ knotsBaromVisibWave heightAir tempDewpointWater temp
2018-Feb-21 14:34N 29°42' W 094°60'0 6.4
2018-Feb-21 14:30N 29°42' W 095°00'3 5.6
2018-Feb-21 14:00N 29°44' W 095°03'4 0.2
2018-Feb-20 17:15N 29°47' W 095°06'0 0.0
2018-Feb-20 17:00N 29°47' W 095°06'0 0.0
2018-Feb-20 10:04N 29°47' W 095°06'0 0.0
2018-Feb-20 08:18N 29°47' W 095°06'0 0.0
2018-Feb-20 08:00N 29°47' W 095°06'0 0.0
2018-Feb-20 07:28N 29°47' W 095°06'0 0.0
2018-Feb-20 06:55N 29°47' W 095°06'0 0.0
2018-Feb-20 06:28N 29°47' W 095°06'0 0.0
2018-Feb-20 06:00N 29°47' W 095°06'0 0.0
2018-Feb-20 05:30N 29°47' W 095°06'0 0.0
2018-Feb-20 05:00N 29°47' W 095°06'0 0.0
2018-Feb-20 04:30N 29°47' W 095°06'0 0.0
2018-Feb-20 04:00N 29°47' W 095°06'0 0.0
2018-Feb-20 03:26N 29°47' W 095°06'0 0.0
2018-Feb-20 02:46N 29°47' W 095°06'0 0.0
2018-Feb-20 02:27N 29°47' W 095°06'0 0.0
2018-Feb-20 01:52N 29°47' W 095°06'0 0.0
2018-Feb-20 01:25N 29°47' W 095°06'0 0.0
2018-Feb-20 00:57N 29°47' W 095°06'0 0.0
2018-Feb-20 00:28N 29°47' W 095°06'0 0.0
2018-Feb-19 23:58N 29°47' W 095°06'0 0.0
2018-Feb-19 23:28N 29°47' W 095°06'1 0.2
2018-Feb-19 18:50N 29°46' W 095°05'1 0.3
2018-Feb-19 14:45N 29°47' W 095°06'0 0.0
2018-Feb-19 14:21N 29°47' W 095°06'0 0.0
2018-Feb-19 14:00N 29°47' W 095°06'0 0.0
2018-Feb-19 13:30N 29°47' W 095°06'0 0.0
2018-Feb-19 10:29N 29°47' W 095°06'0 0.0
2018-Feb-19 09:58N 29°47' W 095°06'0 0.0
2018-Feb-19 09:31N 29°47' W 095°06'0 0.0
2018-Feb-19 09:01N 29°47' W 095°06'0 0.0
2018-Feb-19 08:30N 29°47' W 095°06'0 0.0
2018-Feb-19 08:00N 29°47' W 095°06'0 0.0
2018-Feb-19 07:30N 29°47' W 095°06'0 0.0
2018-Feb-19 06:51N 29°47' W 095°06'0 0.0
2018-Feb-19 06:24N 29°47' W 095°06'0 0.0
2018-Feb-19 05:58N 29°47' W 095°06'0 0.0
2018-Feb-19 05:28N 29°47' W 095°06'2 0.1
2018-Feb-18 11:43N 29°45' W 095°04'2 6.8
2018-Feb-18 11:27N 29°44' W 095°03'3 5.7
2018-Feb-18 11:00N 29°42' W 095°01'3 5.1
2018-Feb-18 10:30N 29°40' W 094°59'4 7.4
2018-Feb-18 10:00N 29°37' W 094°57'4 6.9
2018-Feb-18 09:22N 29°33' W 094°54'4 6.8
2018-Feb-18 08:49N 29°30' W 094°52'2 7.0
2018-Feb-18 08:29N 29°28' W 094°51'4 7.0
2018-Feb-18 07:53N 29°24' W 094°49'21 3.9
2018-Feb-18 02:32N 29°34' W 094°28'0 0.1
2018-Feb-18 02:19N 29°34' W 094°28'0 0.1
2018-Feb-18 01:52N 29°34' W 094°28'0 1.0
2018-Feb-18 01:26N 29°34' W 094°27'1 2.6
2018-Feb-18 01:01N 29°34' W 094°26'2 3.1
2018-Feb-18 00:25N 29°36' W 094°25'3 3.3
2018-Feb-17 23:26N 29°37' W 094°21'0 0.0
2018-Feb-17 22:59N 29°37' W 094°21'0 0.0
2018-Feb-17 22:29N 29°37' W 094°21'2 3.5
2018-Feb-17 21:59N 29°37' W 094°20'3 6.3
2018-Feb-17 21:30N 29°39' W 094°17'3 6.2
2018-Feb-17 21:00N 29°40' W 094°13'3 5.4
2018-Feb-17 20:30N 29°41' W 094°10'3 5.3
2018-Feb-17 20:01N 29°43' W 094°08'3 5.8
2018-Feb-17 19:31N 29°44' W 094°05'3 5.7
2018-Feb-17 19:00N 29°46' W 094°03'3 5.7
2018-Feb-17 18:30N 29°48' W 094°00'3 5.5
2018-Feb-17 18:00N 29°50' W 093°58'4 8.6
2018-Feb-17 17:31N 29°53' W 093°55'4 8.7
2018-Feb-17 17:00N 29°57' W 093°52'3 5.2
2018-Feb-17 16:30N 29°59' W 093°53'3 5.9
2018-Feb-17 16:01N 29°60' W 093°57'0 0.0
2018-Feb-17 15:31N 29°60' W 093°57'0 0.0
2018-Feb-17 15:01N 29°60' W 093°57'0 0.0
2018-Feb-17 14:30N 29°60' W 093°57'0 0.0
2018-Feb-17 14:00N 29°60' W 093°57'0 0.0
2018-Feb-17 13:31N 29°60' W 093°57'0 0.0
2018-Feb-17 13:01N 29°60' W 093°57'0 0.0
2018-Feb-17 12:31N 29°60' W 093°57'0 0.0
2018-Feb-17 12:01N 29°60' W 093°57'0 0.0
2018-Feb-17 11:30N 29°60' W 093°57'0 0.0
2018-Feb-17 11:01N 29°60' W 093°57'0 0.0
2018-Feb-17 10:31N 29°60' W 093°57'0 0.0
2018-Feb-17 10:01N 29°60' W 093°57'0 0.0
2018-Feb-17 09:30N 29°60' W 093°57'0 0.0
2018-Feb-17 09:00N 29°60' W 093°57'0 0.0
2018-Feb-17 08:31N 29°60' W 093°57'0 0.0
2018-Feb-17 08:01N 29°60' W 093°57'0 0.0
2018-Feb-17 07:31N 29°60' W 093°57'0 0.0
2018-Feb-17 07:01N 29°60' W 093°57'0 0.0
2018-Feb-17 06:31N 29°60' W 093°57'0 0.0
2018-Feb-17 06:01N 29°60' W 093°57'0 0.0
2018-Feb-17 05:30N 29°60' W 093°57'0 0.0
2018-Feb-17 05:01N 29°60' W 093°57'0 0.0
2018-Feb-17 04:31N 29°60' W 093°57'0 0.0
2018-Feb-17 04:00N 29°60' W 093°57'0 0.0
2018-Feb-17 03:31N 29°60' W 093°57'0 0.0
2018-Feb-17 03:00N 29°60' W 093°57'0 0.0
2018-Feb-17 02:30N 29°60' W 093°57'0 0.0
2018-Feb-17 02:01N 29°60' W 093°57'0 0.0
2018-Feb-17 01:30N 29°60' W 093°57'3 5.4
2018-Feb-17 01:01N 29°59' W 093°54'2 4.0
2018-Feb-17 00:30N 29°58' W 093°52'0 0.0
2018-Feb-16 23:59N 29°58' W 093°52'0 0.0
2018-Feb-16 23:31N 29°58' W 093°52'0 0.0
2018-Feb-16 23:01N 29°58' W 093°52'0 0.0
2018-Feb-16 22:30N 29°58' W 093°52'0 0.0
2018-Feb-16 22:01N 29°58' W 093°52'0 0.0
2018-Feb-16 21:30N 29°58' W 093°52'0 0.0
2018-Feb-16 21:01N 29°58' W 093°52'0 0.0
2018-Feb-16 20:30N 29°58' W 093°52'0 0.6
2018-Feb-16 20:00N 29°58' W 093°51'0 0.0
2018-Feb-16 19:31N 29°58' W 093°51'0 0.0
2018-Feb-16 19:00N 29°58' W 093°51'0 0.0
2018-Feb-16 18:31N 29°58' W 093°51'0 0.0
2018-Feb-16 18:00N 29°58' W 093°51'1 2.6
2018-Feb-16 17:30N 29°59' W 093°52'4 7.6
2018-Feb-16 17:01N 29°60' W 093°57'1 1.9
2018-Feb-16 16:30N 29°59' W 093°56'3 5.8
2018-Feb-16 16:01N 29°59' W 093°52'2 4.5
2018-Feb-16 15:30N 29°59' W 093°50'2 4.9
2018-Feb-16 15:00N 29°60' W 093°47'0 0.1
2018-Feb-16 14:31N 29°60' W 093°47'0 0.0
2018-Feb-16 14:01N 29°60' W 093°47'0 0.0
2018-Feb-16 13:31N 29°60' W 093°47'0 0.2
2018-Feb-16 13:00N 29°60' W 093°47'0 0.1
2018-Feb-16 12:30N 29°60' W 093°47'0 0.0
2018-Feb-16 12:01N 29°60' W 093°47'0 0.0
2018-Feb-16 11:30N 29°60' W 093°47'0 0.0
2018-Feb-16 11:01N 29°60' W 093°47'0 0.0
2018-Feb-16 10:30N 29°60' W 093°47'0 0.0
2018-Feb-16 10:00N 29°60' W 093°47'0 0.0
2018-Feb-16 09:30N 29°60' W 093°47'0 0.0
2018-Feb-16 09:00N 29°60' W 093°47'0 0.0
2018-Feb-16 08:31N 29°60' W 093°47'0 0.0
2018-Feb-16 08:00N 29°60' W 093°47'0 0.0
2018-Feb-16 07:30N 29°60' W 093°47'0 0.0
2018-Feb-16 07:00N 29°60' W 093°47'0 0.0
2018-Feb-16 06:30N 29°60' W 093°47'0 0.0
2018-Feb-16 06:01N 29°60' W 093°47'0 0.0
2018-Feb-16 05:30N 29°60' W 093°47'0 0.0
2018-Feb-16 05:01N 29°60' W 093°47'0 0.2
2018-Feb-16 04:31N 29°60' W 093°47'2 4.7
2018-Feb-16 04:01N 30°01' W 093°45'3 5.4
2018-Feb-16 03:28N 30°03' W 093°43'2 4.8
2018-Feb-16 02:57N 30°04' W 093°40'2 4.3
2018-Feb-16 02:29N 30°04' W 093°37'3 4.7
2018-Feb-16 01:46N 30°04' W 093°34'1 4.8
2018-Feb-16 01:28N 30°04' W 093°32'2 5.2
2018-Feb-16 01:00N 30°04' W 093°29'3 5.2
2018-Feb-16 00:28N 30°04' W 093°26'3 5.7
2018-Feb-16 00:00N 30°04' W 093°23'2 5.0
2018-Feb-15 23:31N 30°05' W 093°20'2 4.2
2018-Feb-15 23:00N 30°06' W 093°18'2 3.0
2018-Feb-15 22:30N 30°05' W 093°17'1 1.8
2018-Feb-15 22:00N 30°04' W 093°16'3 5.2
2018-Feb-15 21:31N 30°02' W 093°14'3 5.4
2018-Feb-15 21:00N 29°59' W 093°13'3 5.9
2018-Feb-15 20:31N 29°57' W 093°11'3 5.2
2018-Feb-15 20:01N 29°56' W 093°08'3 5.5
2018-Feb-15 19:30N 29°56' W 093°05'7 5.4
2018-Feb-15 18:09N 29°56' W 092°56'1 5.2
2018-Feb-15 17:57N 29°56' W 092°55'29 1.6
2018-Feb-14 23:43N 29°51' W 092°22'1 4.6
2018-Feb-14 23:27N 29°51' W 092°20'2 4.6
2018-Feb-14 23:00N 29°50' W 092°18'2 4.5
2018-Feb-14 22:30N 29°49' W 092°16'2 4.6
2018-Feb-14 22:00N 29°48' W 092°14'2 4.3
2018-Feb-14 21:31N 29°47' W 092°12'2 4.4
2018-Feb-14 21:01N 29°47' W 092°09'2 4.6
2018-Feb-14 20:31N 29°48' W 092°07'2 4.6
2018-Feb-14 19:59N 29°48' W 092°04'2 4.4
2018-Feb-14 19:31N 29°49' W 092°02'2 4.3
2018-Feb-14 19:00N 29°50' W 091°59'55 3.2
2018-Feb-14 01:46N 29°36' W 090°58'2 5.1
2018-Feb-14 01:27N 29°35' W 090°57'2 5.3
2018-Feb-14 01:01N 29°33' W 090°55'3 5.4
2018-Feb-14 00:28N 29°32' W 090°52'2 5.2
2018-Feb-14 00:01N 29°32' W 090°49'3 5.2
2018-Feb-13 23:30N 29°32' W 090°46'3 4.7
2018-Feb-13 22:59N 29°34' W 090°44'2 4.2
2018-Feb-13 22:30N 29°35' W 090°43'2 3.5
2018-Feb-13 22:00N 29°37' W 090°41'2 5.0
2018-Feb-13 21:30N 29°36' W 090°39'2 4.9
2018-Feb-13 21:00N 29°35' W 090°36'2 4.9
2018-Feb-13 20:30N 29°34' W 090°34'3 5.1
2018-Feb-13 20:00N 29°34' W 090°31'3 5.1
2018-Feb-13 19:30N 29°33' W 090°28'  
Track history (hours):
 
Tides and Currents Weather Stations Pressure Air Temp Water Temp Dewpoint Dewpoint Depression Visibility Wind Speed Wind Dir Waves Ship Positions

Mr Farrel

Owner: Crosby Marine Transportation LLC, Golden Meadow, LA. More information available from US FCC via Universal Licensing System and Coast Guard Vessel Documentation Center.

Last reported at 2018-Feb-21 14:34 UTC. Time now 2018-Feb-23 16:17 UTC.
Position N 29°42' W 094°60'.

; draft 3 m.

Type: Tug. MMSI: 367426830.

Date/timePositionNaut miles runAvg speedWind from/ knotsBaromVisibWave heightAir tempDewpointWater temp
2018-Feb-21 14:34N 29°42' W 094°60'0 6.4
2018-Feb-21 14:30N 29°42' W 095°00'3 5.6
2018-Feb-21 14:00N 29°44' W 095°03'4 0.2
2018-Feb-20 17:15N 29°47' W 095°06'0 0.0
2018-Feb-20 17:00N 29°47' W 095°06'0 0.0
2018-Feb-20 10:04N 29°47' W 095°06'0 0.0
2018-Feb-20 08:18N 29°47' W 095°06'0 0.0
2018-Feb-20 08:00N 29°47' W 095°06'0 0.0
2018-Feb-20 07:28N 29°47' W 095°06'0 0.0
2018-Feb-20 06:55N 29°47' W 095°06'0 0.0
2018-Feb-20 06:28N 29°47' W 095°06'0 0.0
2018-Feb-20 06:00N 29°47' W 095°06'0 0.0
2018-Feb-20 05:30N 29°47' W 095°06'0 0.0
2018-Feb-20 05:00N 29°47' W 095°06'0 0.0
2018-Feb-20 04:30N 29°47' W 095°06'0 0.0
2018-Feb-20 04:00N 29°47' W 095°06'0 0.0
2018-Feb-20 03:26N 29°47' W 095°06'0 0.0
2018-Feb-20 02:46N 29°47' W 095°06'0 0.0
2018-Feb-20 02:27N 29°47' W 095°06'0 0.0
2018-Feb-20 01:52N 29°47' W 095°06'0 0.0
2018-Feb-20 01:25N 29°47' W 095°06'0 0.0
2018-Feb-20 00:57N 29°47' W 095°06'0 0.0
2018-Feb-20 00:28N 29°47' W 095°06'0 0.0
2018-Feb-19 23:58N 29°47' W 095°06'0 0.0
2018-Feb-19 23:28N 29°47' W 095°06'1 0.2
2018-Feb-19 18:50N 29°46' W 095°05'1 0.3
2018-Feb-19 14:45N 29°47' W 095°06'0 0.0
2018-Feb-19 14:21N 29°47' W 095°06'0 0.0
2018-Feb-19 14:00N 29°47' W 095°06'0 0.0
2018-Feb-19 13:30N 29°47' W 095°06'0 0.0
2018-Feb-19 10:29N 29°47' W 095°06'0 0.0
2018-Feb-19 09:58N 29°47' W 095°06'0 0.0
2018-Feb-19 09:31N 29°47' W 095°06'0 0.0
2018-Feb-19 09:01N 29°47' W 095°06'0 0.0
2018-Feb-19 08:30N 29°47' W 095°06'0 0.0
2018-Feb-19 08:00N 29°47' W 095°06'0 0.0
2018-Feb-19 07:30N 29°47' W 095°06'0 0.0
2018-Feb-19 06:51N 29°47' W 095°06'0 0.0
2018-Feb-19 06:24N 29°47' W 095°06'0 0.0
2018-Feb-19 05:58N 29°47' W 095°06'0 0.0
2018-Feb-19 05:28N 29°47' W 095°06'2 0.1
2018-Feb-18 11:43N 29°45' W 095°04'2 6.8
2018-Feb-18 11:27N 29°44' W 095°03'3 5.7
2018-Feb-18 11:00N 29°42' W 095°01'3 5.1
2018-Feb-18 10:30N 29°40' W 094°59'4 7.4
2018-Feb-18 10:00N 29°37' W 094°57'4 6.9
2018-Feb-18 09:22N 29°33' W 094°54'4 6.8
2018-Feb-18 08:49N 29°30' W 094°52'2 7.0
2018-Feb-18 08:29N 29°28' W 094°51'4 7.0
2018-Feb-18 07:53N 29°24' W 094°49'21 3.9
2018-Feb-18 02:32N 29°34' W 094°28'0 0.1
2018-Feb-18 02:19N 29°34' W 094°28'0 0.1
2018-Feb-18 01:52N 29°34' W 094°28'0 1.0
2018-Feb-18 01:26N 29°34' W 094°27'1 2.6
2018-Feb-18 01:01N 29°34' W 094°26'2 3.1
2018-Feb-18 00:25N 29°36' W 094°25'3 3.3
2018-Feb-17 23:26N 29°37' W 094°21'0 0.0
2018-Feb-17 22:59N 29°37' W 094°21'0 0.0
2018-Feb-17 22:29N 29°37' W 094°21'2 3.5
2018-Feb-17 21:59N 29°37' W 094°20'3 6.3
2018-Feb-17 21:30N 29°39' W 094°17'3 6.2
2018-Feb-17 21:00N 29°40' W 094°13'3 5.4
2018-Feb-17 20:30N 29°41' W 094°10'3 5.3
2018-Feb-17 20:01N 29°43' W 094°08'3 5.8
2018-Feb-17 19:31N 29°44' W 094°05'3 5.7
2018-Feb-17 19:00N 29°46' W 094°03'3 5.7
2018-Feb-17 18:30N 29°48' W 094°00'3 5.5
2018-Feb-17 18:00N 29°50' W 093°58'4 8.6
2018-Feb-17 17:31N 29°53' W 093°55'4 8.7
2018-Feb-17 17:00N 29°57' W 093°52'3 5.2
2018-Feb-17 16:30N 29°59' W 093°53'3 5.9
2018-Feb-17 16:01N 29°60' W 093°57'0 0.0
2018-Feb-17 15:31N 29°60' W 093°57'0 0.0
2018-Feb-17 15:01N 29°60' W 093°57'0 0.0
2018-Feb-17 14:30N 29°60' W 093°57'0 0.0
2018-Feb-17 14:00N 29°60' W 093°57'0 0.0
2018-Feb-17 13:31N 29°60' W 093°57'0 0.0
2018-Feb-17 13:01N 29°60' W 093°57'0 0.0
2018-Feb-17 12:31N 29°60' W 093°57'0 0.0
2018-Feb-17 12:01N 29°60' W 093°57'0 0.0
2018-Feb-17 11:30N 29°60' W 093°57'0 0.0
2018-Feb-17 11:01N 29°60' W 093°57'0 0.0
2018-Feb-17 10:31N 29°60' W 093°57'0 0.0
2018-Feb-17 10:01N 29°60' W 093°57'0 0.0
2018-Feb-17 09:30N 29°60' W 093°57'0 0.0
2018-Feb-17 09:00N 29°60' W 093°57'0 0.0
2018-Feb-17 08:31N 29°60' W 093°57'0 0.0
2018-Feb-17 08:01N 29°60' W 093°57'0 0.0
2018-Feb-17 07:31N 29°60' W 093°57'0 0.0
2018-Feb-17 07:01N 29°60' W 093°57'0 0.0
2018-Feb-17 06:31N 29°60' W 093°57'0 0.0
2018-Feb-17 06:01N 29°60' W 093°57'0 0.0
2018-Feb-17 05:30N 29°60' W 093°57'0 0.0
2018-Feb-17 05:01N 29°60' W 093°57'0 0.0
2018-Feb-17 04:31N 29°60' W 093°57'0 0.0
2018-Feb-17 04:00N 29°60' W 093°57'0 0.0
2018-Feb-17 03:31N 29°60' W 093°57'0 0.0
2018-Feb-17 03:00N 29°60' W 093°57'0 0.0
2018-Feb-17 02:30N 29°60' W 093°57'0 0.0
2018-Feb-17 02:01N 29°60' W 093°57'0 0.0
2018-Feb-17 01:30N 29°60' W 093°57'3 5.4
2018-Feb-17 01:01N 29°59' W 093°54'2 4.0
2018-Feb-17 00:30N 29°58' W 093°52'0 0.0
2018-Feb-16 23:59N 29°58' W 093°52'0 0.0
2018-Feb-16 23:31N 29°58' W 093°52'0 0.0
2018-Feb-16 23:01N 29°58' W 093°52'0 0.0
2018-Feb-16 22:30N 29°58' W 093°52'0 0.0
2018-Feb-16 22:01N 29°58' W 093°52'0 0.0
2018-Feb-16 21:30N 29°58' W 093°52'0 0.0
2018-Feb-16 21:01N 29°58' W 093°52'0 0.0
2018-Feb-16 20:30N 29°58' W 093°52'0 0.6
2018-Feb-16 20:00N 29°58' W 093°51'0 0.0
2018-Feb-16 19:31N 29°58' W 093°51'0 0.0
2018-Feb-16 19:00N 29°58' W 093°51'0 0.0
2018-Feb-16 18:31N 29°58' W 093°51'0 0.0
2018-Feb-16 18:00N 29°58' W 093°51'1 2.6
2018-Feb-16 17:30N 29°59' W 093°52'4 7.6
2018-Feb-16 17:01N 29°60' W 093°57'1 1.9
2018-Feb-16 16:30N 29°59' W 093°56'3 5.8
2018-Feb-16 16:01N 29°59' W 093°52'2 4.5
2018-Feb-16 15:30N 29°59' W 093°50'2 4.9
2018-Feb-16 15:00N 29°60' W 093°47'0 0.1
2018-Feb-16 14:31N 29°60' W 093°47'0 0.0
2018-Feb-16 14:01N 29°60' W 093°47'0 0.0
2018-Feb-16 13:31N 29°60' W 093°47'0 0.2
2018-Feb-16 13:00N 29°60' W 093°47'0 0.1
2018-Feb-16 12:30N 29°60' W 093°47'0 0.0
2018-Feb-16 12:01N 29°60' W 093°47'0 0.0
2018-Feb-16 11:30N 29°60' W 093°47'0 0.0
2018-Feb-16 11:01N 29°60' W 093°47'0 0.0
2018-Feb-16 10:30N 29°60' W 093°47'0 0.0
2018-Feb-16 10:00N 29°60' W 093°47'0 0.0
2018-Feb-16 09:30N 29°60' W 093°47'0 0.0
2018-Feb-16 09:00N 29°60' W 093°47'0 0.0
2018-Feb-16 08:31N 29°60' W 093°47'0 0.0
2018-Feb-16 08:00N 29°60' W 093°47'0 0.0
2018-Feb-16 07:30N 29°60' W 093°47'0 0.0
2018-Feb-16 07:00N 29°60' W 093°47'0 0.0
2018-Feb-16 06:30N 29°60' W 093°47'0 0.0
2018-Feb-16 06:01N 29°60' W 093°47'0 0.0
2018-Feb-16 05:30N 29°60' W 093°47'0 0.0
2018-Feb-16 05:01N 29°60' W 093°47'0 0.2
2018-Feb-16 04:31N 29°60' W 093°47'2 4.7
2018-Feb-16 04:01N 30°01' W 093°45'3 5.4
2018-Feb-16 03:28N 30°03' W 093°43'2 4.8
2018-Feb-16 02:57N 30°04' W 093°40'2 4.3
2018-Feb-16 02:29N 30°04' W 093°37'3 4.7
2018-Feb-16 01:46N 30°04' W 093°34'1 4.8
2018-Feb-16 01:28N 30°04' W 093°32'2 5.2
2018-Feb-16 01:00N 30°04' W 093°29'3 5.2
2018-Feb-16 00:28N 30°04' W 093°26'3 5.7
2018-Feb-16 00:00N 30°04' W 093°23'2 5.0
2018-Feb-15 23:31N 30°05' W 093°20'2 4.2
2018-Feb-15 23:00N 30°06' W 093°18'2 3.0
2018-Feb-15 22:30N 30°05' W 093°17'1 1.8
2018-Feb-15 22:00N 30°04' W 093°16'3 5.2
2018-Feb-15 21:31N 30°02' W 093°14'3 5.4
2018-Feb-15 21:00N 29°59' W 093°13'3 5.9
2018-Feb-15 20:31N 29°57' W 093°11'3 5.2
2018-Feb-15 20:01N 29°56' W 093°08'3 5.5
2018-Feb-15 19:30N 29°56' W 093°05'7 5.4
2018-Feb-15 18:09N 29°56' W 092°56'1 5.2
2018-Feb-15 17:57N 29°56' W 092°55'29 1.6
2018-Feb-14 23:43N 29°51' W 092°22'1 4.6
2018-Feb-14 23:27N 29°51' W 092°20'2 4.6
2018-Feb-14 23:00N 29°50' W 092°18'2 4.5
2018-Feb-14 22:30N 29°49' W 092°16'2 4.6
2018-Feb-14 22:00N 29°48' W 092°14'2 4.3
2018-Feb-14 21:31N 29°47' W 092°12'2 4.4
2018-Feb-14 21:01N 29°47' W 092°09'2 4.6
2018-Feb-14 20:31N 29°48' W 092°07'2 4.6
2018-Feb-14 19:59N 29°48' W 092°04'2 4.4
2018-Feb-14 19:31N 29°49' W 092°02'2 4.3
2018-Feb-14 19:00N 29°50' W 091°59'55 3.2
2018-Feb-14 01:46N 29°36' W 090°58'2 5.1
2018-Feb-14 01:27N 29°35' W 090°57'2 5.3
2018-Feb-14 01:01N 29°33' W 090°55'3 5.4
2018-Feb-14 00:28N 29°32' W 090°52'2 5.2
2018-Feb-14 00:01N 29°32' W 090°49'3 5.2
2018-Feb-13 23:30N 29°32' W 090°46'3 4.7
2018-Feb-13 22:59N 29°34' W 090°44'2 4.2
2018-Feb-13 22:30N 29°35' W 090°43'2 3.5
2018-Feb-13 22:00N 29°37' W 090°41'2 5.0
2018-Feb-13 21:30N 29°36' W 090°39'2 4.9
2018-Feb-13 21:00N 29°35' W 090°36'2 4.9
2018-Feb-13 20:30N 29°34' W 090°34'3 5.1
2018-Feb-13 20:00N 29°34' W 090°31'3 5.1
2018-Feb-13 19:30N 29°33' W 090°28'  

Dump ship's entire track history